createdAt,value
2018-04-19T00:00:54.672Z,99228.63
2018-04-19T00:03:23.494Z,99230.98
2018-04-19T00:05:51.197Z,99232.80
2018-04-19T00:08:18.848Z,99223.43
2018-04-19T00:10:46.449Z,99228.34
2018-04-19T00:13:14.034Z,99223.86
2018-04-19T00:15:41.668Z,99209.59
2018-04-19T00:18:09.954Z,99221.27
2018-04-19T00:20:37.624Z,99212.09
2018-04-19T00:23:05.302Z,99215.27
2018-04-19T00:25:33.076Z,99215.58
2018-04-19T00:28:00.824Z,99214.81
2018-04-19T00:30:28.357Z,99205.86
2018-04-19T00:32:56.487Z,99207.41
2018-04-19T00:35:24.270Z,99209.69
2018-04-19T00:37:51.929Z,99208.74
2018-04-19T00:40:19.509Z,99205.58
2018-04-19T00:42:47.255Z,99203.55
2018-04-19T00:45:14.808Z,99203.27
2018-04-19T00:47:42.413Z,99200.22
2018-04-19T00:50:10.083Z,99192.58
2018-04-19T00:52:50.088Z,99194.71
2018-04-19T00:55:17.604Z,99194.31
2018-04-19T00:57:45.194Z,99189.70
2018-04-19T01:00:12.958Z,99186.31
2018-04-19T01:02:41.350Z,99189.68
2018-04-19T01:05:09.566Z,99187.15
2018-04-19T01:07:37.233Z,99192.20
2018-04-19T01:10:04.848Z,99180.75
2018-04-19T01:12:32.489Z,99184.03
2018-04-19T01:15:00.087Z,99185.14
2018-04-19T01:17:27.780Z,99179.58
2018-04-19T01:19:55.306Z,99174.66
2018-04-19T01:22:23.013Z,99170.86
2018-04-19T01:24:50.613Z,99168.02
2018-04-19T01:27:18.433Z,99174.14
2018-04-19T01:29:46.051Z,99161.80
2018-04-19T01:32:13.864Z,99171.97
2018-04-19T01:34:41.819Z,99165.42
2018-04-19T01:37:09.728Z,99157.58
2018-04-19T01:39:37.293Z,99156.33
2018-04-19T01:42:05.265Z,99157.33
2018-04-19T01:44:32.803Z,99160.03
2018-04-19T01:47:00.430Z,99154.61
2018-04-19T01:49:28.168Z,99157.06
2018-04-19T01:51:55.696Z,99163.33
2018-04-19T01:54:23.495Z,99157.06
2018-04-19T01:56:51.049Z,99160.73
2018-04-19T01:59:18.749Z,99164.00
2018-04-19T02:01:46.500Z,99160.95
2018-04-19T02:04:14.268Z,99161.98
2018-04-19T02:06:42.204Z,99160.56
2018-04-19T02:09:10.022Z,99158.89
2018-04-19T02:11:37.775Z,99158.70
2018-04-19T02:14:05.334Z,99158.94
2018-04-19T02:16:33.103Z,99156.47
2018-04-19T02:19:00.770Z,99160.84
2018-04-19T02:21:28.348Z,99158.01
2018-04-19T02:23:56.036Z,99162.53
2018-04-19T02:26:24.004Z,99163.60
2018-04-19T02:28:51.616Z,99156.44
2018-04-19T02:31:19.259Z,99161.01
2018-04-19T02:33:46.873Z,99155.73
2018-04-19T02:36:14.589Z,99155.51
2018-04-19T02:38:43.196Z,99153.20
2018-04-19T02:41:10.896Z,99153.23
2018-04-19T02:43:38.674Z,99160.19
2018-04-19T02:46:06.595Z,99157.06
2018-04-19T02:48:34.289Z,99152.69
2018-04-19T02:51:02.110Z,99153.98
2018-04-19T02:53:29.900Z,99153.91
2018-04-19T02:55:57.404Z,99139.08
2018-04-19T02:58:25.239Z,99143.76
2018-04-19T03:00:52.905Z,99150.48
2018-04-19T03:03:20.871Z,99141.19
2018-04-19T03:05:48.400Z,99148.63
2018-04-19T03:08:16.058Z,99143.33
2018-04-19T03:10:43.651Z,99152.68
2018-04-19T03:13:11.359Z,99147.16
2018-04-19T03:15:39.183Z,99152.78
2018-04-19T03:18:06.806Z,99153.09
2018-04-19T03:20:34.610Z,99149.58
2018-04-19T03:23:02.223Z,99148.36
2018-04-19T03:25:29.815Z,99147.47
2018-04-19T03:27:58.551Z,99152.16
2018-04-19T03:30:26.079Z,99150.50
2018-04-19T03:32:53.755Z,99151.81
2018-04-19T03:35:21.355Z,99157.08
2018-04-19T03:37:49.293Z,99154.59
2018-04-19T03:40:17.096Z,99152.48
2018-04-19T03:42:44.623Z,99163.35
2018-04-19T03:45:12.324Z,99152.77
2018-04-19T03:47:39.860Z,99150.15
2018-04-19T03:50:07.613Z,99152.77
2018-04-19T03:52:36.073Z,99147.87
2018-04-19T03:55:03.620Z,99149.77
2018-04-19T03:57:31.414Z,99148.07
2018-04-19T04:00:00.013Z,99157.34
2018-04-19T04:02:27.601Z,99153.51
2018-04-19T04:04:55.314Z,99161.45
2018-04-19T04:07:23.095Z,99155.82
2018-04-19T04:09:50.828Z,99155.87
2018-04-19T04:12:18.635Z,99156.23
2018-04-19T04:14:46.433Z,99159.93
2018-04-19T04:17:25.886Z,99162.36
2018-04-19T04:20:05.524Z,99163.23
2018-04-19T04:22:45.264Z,99160.33
2018-04-19T04:25:12.826Z,99161.72
2018-04-19T04:27:40.577Z,99158.46
2018-04-19T04:30:08.115Z,99160.44
2018-04-19T04:32:36.503Z,99166.20
2018-04-19T04:35:04.155Z,99160.13
2018-04-19T04:37:31.915Z,99161.66
2018-04-19T04:40:00.036Z,99158.94
2018-04-19T04:42:27.729Z,99166.16
2018-04-19T04:44:55.461Z,99169.05
2018-04-19T04:47:23.084Z,99167.61
2018-04-19T04:49:50.653Z,99167.55
2018-04-19T04:52:18.271Z,99166.58
2018-04-19T04:54:46.570Z,99171.16
2018-04-19T04:57:14.191Z,99183.59
2018-04-19T04:59:41.989Z,99177.23
2018-04-19T05:02:09.559Z,99179.84
2018-04-19T05:04:37.704Z,99182.06
2018-04-19T05:07:05.390Z,99176.72
2018-04-19T05:09:33.102Z,99184.78
2018-04-19T05:12:00.729Z,99188.33
2018-04-19T05:14:28.311Z,99188.56
2018-04-19T05:16:55.829Z,99189.94
2018-04-19T05:19:23.386Z,99186.66
2018-04-19T05:21:51.399Z,99191.13
2018-04-19T05:24:19.232Z,99192.47
2018-04-19T05:26:46.907Z,99193.95
2018-04-19T05:29:14.582Z,99196.30
2018-04-19T05:31:42.385Z,99200.16
2018-04-19T05:34:09.920Z,99206.25
2018-04-19T05:36:37.612Z,99203.63
2018-04-19T05:39:05.227Z,99206.16
2018-04-19T05:41:32.766Z,99210.27
2018-04-19T05:44:00.339Z,99213.56
2018-04-19T05:46:28.030Z,99212.30
2018-04-19T05:48:55.986Z,99212.39
2018-04-19T05:51:23.687Z,99215.87
2018-04-19T05:53:51.265Z,99213.74
2018-04-19T05:56:19.075Z,99214.58
2018-04-19T05:58:46.647Z,99216.27
2018-04-19T06:01:14.708Z,99219.55
2018-04-19T06:03:42.457Z,99214.98
2018-04-19T06:06:10.044Z,99217.25
2018-04-19T06:08:37.973Z,99211.39
2018-04-19T06:11:05.660Z,99217.64
2018-04-19T06:13:33.196Z,99223.87
2018-04-19T06:16:00.919Z,99214.95
2018-04-19T06:18:28.755Z,99219.62
2018-04-19T06:20:56.620Z,99218.27
2018-04-19T06:23:24.194Z,99214.45
2018-04-19T06:25:52.430Z,99211.30
2018-04-19T06:28:20.060Z,99217.28
2018-04-19T06:30:48.216Z,99218.45
2018-04-19T06:33:15.874Z,99213.63
2018-04-19T06:35:44.401Z,99214.61
2018-04-19T06:38:12.040Z,99211.05
2018-04-19T06:40:39.605Z,99207.66
2018-04-19T06:43:08.002Z,99205.95
2018-04-19T06:45:35.567Z,99206.30
2018-04-19T06:48:03.126Z,99204.78
2018-04-19T06:50:30.767Z,99206.64
2018-04-19T06:52:58.307Z,99205.60
2018-04-19T06:55:26.080Z,99198.96
2018-04-19T06:57:53.736Z,99206.17
2018-04-19T07:00:21.396Z,99212.41
2018-04-19T07:02:49.117Z,99209.66
2018-04-19T07:05:17.411Z,99205.80
2018-04-19T07:07:45.100Z,99202.81
2018-04-19T07:10:12.851Z,99202.34
2018-04-19T07:12:40.383Z,99194.80
2018-04-19T07:15:08.375Z,99198.17
2018-04-19T07:17:35.918Z,99192.41
2018-04-19T07:20:03.551Z,99186.47
2018-04-19T07:22:31.171Z,99189.00
2018-04-19T07:24:58.721Z,99190.65
2018-04-19T07:27:26.558Z,99191.98
2018-04-19T07:29:54.165Z,99189.38
2018-04-19T07:32:21.839Z,99178.80
2018-04-19T07:34:49.460Z,99187.75
2018-04-19T07:37:17.002Z,99183.17
2018-04-19T07:39:44.565Z,99186.78
2018-04-19T07:42:12.147Z,99182.97
2018-04-19T07:44:40.502Z,99180.51
2018-04-19T07:47:08.157Z,99181.14
2018-04-19T07:49:35.857Z,99185.98
2018-04-19T07:52:04.555Z,99179.23
2018-04-19T07:54:32.340Z,99180.70
2018-04-19T07:57:00.080Z,99174.12
2018-04-19T07:59:27.909Z,99173.59
2018-04-19T08:01:55.490Z,99170.66
2018-04-19T08:04:23.097Z,99173.99
2018-04-19T08:06:51.615Z,99169.45
2018-04-19T08:09:19.338Z,99168.55
2018-04-19T08:11:47.051Z,99173.81
2018-04-19T08:14:14.802Z,99172.69
2018-04-19T08:16:42.415Z,99179.50
2018-04-19T08:19:10.165Z,99173.48
2018-04-19T08:21:38.243Z,99174.38
2018-04-19T08:24:05.812Z,99170.02
2018-04-19T08:26:33.462Z,99176.89
2018-04-19T08:29:01.156Z,99171.08
2018-04-19T08:31:28.788Z,99173.99
2018-04-19T08:33:56.541Z,99172.19
2018-04-19T08:36:24.187Z,99169.08
2018-04-19T08:38:51.947Z,99163.63
2018-04-19T08:41:19.634Z,99169.14
2018-04-19T08:43:47.180Z,99164.67
2018-04-19T08:46:14.760Z,99156.69
2018-04-19T08:48:42.292Z,99160.98
2018-04-19T08:51:09.867Z,99154.86
2018-04-19T08:53:37.606Z,99151.50
2018-04-19T08:56:05.237Z,99153.08
2018-04-19T08:58:32.786Z,99156.05
2018-04-19T09:01:01.582Z,99158.34
2018-04-19T09:03:29.307Z,99150.34
2018-04-19T09:05:56.966Z,99157.14
2018-04-19T09:08:24.562Z,99153.69
2018-04-19T09:10:52.176Z,99153.75
2018-04-19T09:13:19.826Z,99150.83
2018-04-19T09:15:47.544Z,99155.25
2018-04-19T09:18:15.156Z,99144.76
2018-04-19T09:20:42.786Z,99150.06
2018-04-19T09:23:10.394Z,99153.66
2018-04-19T09:25:38.083Z,99155.51
2018-04-19T09:28:05.910Z,99150.25
2018-04-19T09:30:33.626Z,99159.27
2018-04-19T09:33:01.455Z,99157.51
2018-04-19T09:35:29.003Z,99159.31
2018-04-19T09:37:56.897Z,99158.23
2018-04-19T09:40:24.497Z,99156.44
2018-04-19T09:42:52.158Z,99151.66
2018-04-19T09:45:20.022Z,99155.50
2018-04-19T09:47:47.637Z,99159.71
2018-04-19T09:50:15.314Z,99151.33
2018-04-19T09:52:42.946Z,99150.23
2018-04-19T09:55:10.599Z,99151.12
2018-04-19T09:57:38.408Z,99152.61
2018-04-19T10:00:06.030Z,99147.81
2018-04-19T10:02:35.572Z,99141.00
2018-04-19T10:05:03.268Z,99141.39
2018-04-19T10:07:30.787Z,99138.21
2018-04-19T10:09:58.654Z,99144.31
2018-04-19T10:12:26.370Z,99135.55
2018-04-19T10:14:54.107Z,99136.80
2018-04-19T10:17:21.681Z,99135.48
2018-04-19T10:19:49.281Z,99128.02
2018-04-19T10:22:17.408Z,99123.41
2018-04-19T10:24:45.138Z,99120.09
2018-04-19T10:27:12.871Z,99120.03
2018-04-19T10:29:40.792Z,99126.13
2018-04-19T10:32:08.327Z,99114.86
2018-04-19T10:34:35.967Z,99115.45
2018-04-19T10:37:03.584Z,99113.14
2018-04-19T10:39:31.222Z,99108.55
2018-04-19T10:41:59.008Z,99108.01
2018-04-19T10:44:26.742Z,99109.97
2018-04-19T10:46:54.483Z,99107.20
2018-04-19T10:49:22.077Z,99106.70
2018-04-19T10:51:49.657Z,99101.77
2018-04-19T10:54:17.518Z,99108.25
2018-04-19T10:56:45.239Z,99102.18
2018-04-19T10:59:12.833Z,99105.67
2018-04-19T11:01:40.371Z,99101.09
2018-04-19T11:04:07.967Z,99098.83
2018-04-19T11:06:35.747Z,99096.38
2018-04-19T11:09:03.447Z,99100.02
2018-04-19T11:11:31.210Z,99101.55
2018-04-19T11:13:58.813Z,99095.14
2018-04-19T11:16:26.433Z,99098.06
2018-04-19T11:18:54.075Z,99095.00
2018-04-19T11:21:21.819Z,99087.19
2018-04-19T11:23:50.432Z,99090.96
2018-04-19T11:26:18.097Z,99088.98
2018-04-19T11:28:45.851Z,99093.34
2018-04-19T11:31:13.612Z,99084.23
2018-04-19T11:33:41.172Z,99069.04
2018-04-19T11:36:08.965Z,99077.73
2018-04-19T11:38:36.713Z,99077.67
2018-04-19T11:41:04.303Z,99075.11
2018-04-19T11:43:32.585Z,99068.70
2018-04-19T11:46:00.127Z,99068.15
2018-04-19T11:48:27.761Z,99070.77
2018-04-19T11:50:55.337Z,99068.91
2018-04-19T11:53:22.937Z,99063.00
2018-04-19T11:55:50.787Z,99062.61
2018-04-19T11:58:18.467Z,99064.77
2018-04-19T12:00:46.333Z,99060.29
2018-04-19T12:03:13.854Z,99065.52
2018-04-19T12:05:41.940Z,99056.66
2018-04-19T12:08:09.462Z,99063.80
2018-04-19T12:10:37.152Z,99056.89
2018-04-19T12:13:04.708Z,99051.52
2018-04-19T12:15:32.274Z,99048.44
2018-04-19T12:18:00.213Z,99052.31
2018-04-19T12:20:28.575Z,99046.03
2018-04-19T12:22:56.217Z,99054.00
2018-04-19T12:25:23.995Z,99050.09
2018-04-19T12:27:53.264Z,99048.98
2018-04-19T12:30:20.832Z,99047.98
2018-04-19T12:32:48.533Z,99042.28
2018-04-19T12:35:16.090Z,99044.16
2018-04-19T12:37:44.114Z,99043.58
2018-04-19T12:40:11.620Z,99048.81
2018-04-19T12:42:39.408Z,99048.08
2018-04-19T12:45:07.114Z,99032.14
2018-04-19T12:47:35.537Z,99035.77
2018-04-19T12:50:03.417Z,99034.55
2018-04-19T12:52:31.124Z,99034.17
2018-04-19T12:54:58.728Z,99029.15
2018-04-19T12:57:26.855Z,99031.33
2018-04-19T12:59:54.562Z,99025.64
2018-04-19T13:02:22.093Z,99021.59
2018-04-19T13:04:49.649Z,99021.79
2018-04-19T13:07:17.222Z,99016.55
2018-04-19T13:09:45.024Z,99020.28
2018-04-19T13:12:12.557Z,99012.21
2018-04-19T13:14:40.184Z,99017.33
2018-04-19T13:17:07.717Z,99017.35
2018-04-19T13:19:35.260Z,99020.09
2018-04-19T13:22:02.950Z,99007.98
2018-04-19T13:24:31.165Z,99011.20
2018-04-19T13:26:58.869Z,99001.41
2018-04-19T13:29:26.622Z,99007.49
2018-04-19T13:31:54.258Z,98998.69
2018-04-19T13:34:22.189Z,98997.47
2018-04-19T13:36:50.003Z,98989.33
2018-04-19T13:39:17.557Z,98987.44
2018-04-19T13:41:45.277Z,98985.88
2018-04-19T13:44:12.842Z,98980.09
2018-04-19T13:46:40.595Z,98976.58
2018-04-19T13:49:08.110Z,98970.19
2018-04-19T13:51:35.635Z,98973.20
2018-04-19T13:54:03.405Z,98976.09
2018-04-19T13:56:31.107Z,98964.54
2018-04-19T13:58:58.766Z,98965.53
2018-04-19T14:01:26.565Z,98964.95
2018-04-19T14:03:54.273Z,98962.30
2018-04-19T14:06:21.805Z,98957.65
2018-04-19T14:08:49.404Z,98959.40
2018-04-19T14:11:17.080Z,98950.49
2018-04-19T14:13:44.733Z,98949.40
2018-04-19T14:16:12.923Z,98946.77
2018-04-19T14:18:40.701Z,98939.97
2018-04-19T14:21:08.425Z,98934.68
2018-04-19T14:23:36.163Z,98938.92
2018-04-19T14:26:03.933Z,98937.50
2018-04-19T14:28:31.799Z,98929.34
2018-04-19T14:30:59.521Z,98934.11
2018-04-19T14:33:27.091Z,98927.93
2018-04-19T14:35:54.749Z,98923.36
2018-04-19T14:38:23.131Z,98920.41
2018-04-19T14:40:50.685Z,98921.26
2018-04-19T14:43:18.450Z,98927.64
2018-04-19T14:45:46.189Z,98922.94
2018-04-19T14:48:13.858Z,98921.28
2018-04-19T14:50:41.469Z,98926.54
2018-04-19T14:53:09.026Z,98917.89
2018-04-19T14:55:36.656Z,98917.14
2018-04-19T14:58:04.425Z,98916.98
2018-04-19T15:00:32.266Z,98919.20
2018-04-19T15:02:59.832Z,98922.30
2018-04-19T15:05:27.598Z,98919.06
2018-04-19T15:07:55.290Z,98917.66
2018-04-19T15:10:23.228Z,98911.76
2018-04-19T15:12:50.790Z,98902.98
2018-04-19T15:15:18.434Z,98906.14
2018-04-19T15:17:46.145Z,98909.33
2018-04-19T15:20:13.786Z,98907.55
2018-04-19T15:22:41.327Z,98909.83
2018-04-19T15:25:08.959Z,98909.66
2018-04-19T15:27:36.519Z,98901.09
2018-04-19T15:30:04.124Z,98905.39
2018-04-19T15:32:31.850Z,98901.67
2018-04-19T15:34:59.578Z,98897.51
2018-04-19T15:37:27.113Z,98904.45
2018-04-19T15:39:54.643Z,98891.39
2018-04-19T15:42:22.756Z,98895.25
2018-04-19T15:44:50.676Z,98901.55
2018-04-19T15:47:18.389Z,98895.36
2018-04-19T15:49:45.950Z,98895.46
2018-04-19T15:52:13.906Z,98890.17
2018-04-19T15:54:41.462Z,98897.03
2018-04-19T15:57:09.155Z,98895.67
2018-04-19T15:59:36.946Z,98891.22
2018-04-19T16:02:04.602Z,98890.90
2018-04-19T16:04:32.221Z,98891.98
2018-04-19T16:06:59.855Z,98892.95
2018-04-19T16:09:28.408Z,98891.27
2018-04-19T16:11:56.166Z,98883.35
2018-04-19T16:14:23.732Z,98888.89
2018-04-19T16:16:51.344Z,98890.33
2018-04-19T16:19:19.687Z,98889.86
2018-04-19T16:21:47.825Z,98887.44
2018-04-19T16:24:16.045Z,98886.63
2018-04-19T16:26:43.756Z,98881.56
2018-04-19T16:29:11.499Z,98888.02
2018-04-19T16:31:39.249Z,98882.17
2018-04-19T16:34:06.863Z,98891.14
2018-04-19T16:36:34.429Z,98883.92
2018-04-19T16:39:01.978Z,98882.64
2018-04-19T16:41:29.523Z,98876.96
2018-04-19T16:43:57.401Z,98883.12
2018-04-19T16:46:25.277Z,98886.95
2018-04-19T16:48:53.006Z,98887.31
2018-04-19T16:51:20.571Z,98885.08
2018-04-19T16:53:48.327Z,98883.84
2018-04-19T16:56:16.065Z,98884.64
2018-04-19T16:58:43.637Z,98883.63
2018-04-19T17:01:11.254Z,98876.09
2018-04-19T17:03:39.646Z,98873.59
2018-04-19T17:06:07.218Z,98876.62
2018-04-19T17:08:34.983Z,98881.17
2018-04-19T17:11:02.661Z,98872.97
2018-04-19T17:13:30.341Z,98876.88
2018-04-19T17:15:58.053Z,98874.66
2018-04-19T17:18:25.784Z,98875.01
2018-04-19T17:20:53.373Z,98870.84
2018-04-19T17:23:20.966Z,98874.09
2018-04-19T17:25:48.522Z,98866.66
2018-04-19T17:28:16.037Z,98870.92
2018-04-19T17:30:43.707Z,98873.41
2018-04-19T17:33:11.350Z,98869.50
2018-04-19T17:35:38.880Z,98865.94
2018-04-19T17:38:06.426Z,98869.72
2018-04-19T17:40:34.125Z,98871.07
2018-04-19T17:43:01.734Z,98864.31
2018-04-19T17:45:29.597Z,98865.36
2018-04-19T17:47:57.278Z,98862.05
2018-04-19T17:50:25.150Z,98865.45
2018-04-19T17:52:52.728Z,98869.47
2018-04-19T17:55:20.294Z,98867.09
2018-04-19T17:57:47.913Z,98864.41
2018-04-19T18:00:15.560Z,98871.16
2018-04-19T18:02:43.307Z,98871.44
2018-04-19T18:05:10.867Z,98872.30
2018-04-19T18:07:39.108Z,98874.44
2018-04-19T18:10:06.707Z,98876.59
2018-04-19T18:12:34.693Z,98881.27
2018-04-19T18:15:02.477Z,98879.33
2018-04-19T18:17:30.152Z,98881.88
2018-04-19T18:19:57.878Z,98889.02
2018-04-19T18:22:25.409Z,98890.52
2018-04-19T18:24:53.015Z,98885.08
2018-04-19T18:27:21.151Z,98890.47
2018-04-19T18:29:48.833Z,98894.66
2018-04-19T18:32:16.839Z,98893.98
2018-04-19T18:34:44.643Z,98896.97
2018-04-19T18:37:12.360Z,98902.45
2018-04-19T18:39:40.009Z,98904.69
2018-04-19T18:42:07.634Z,98904.59
2018-04-19T18:44:35.188Z,98911.47
2018-04-19T18:47:02.823Z,98914.09
2018-04-19T18:49:30.430Z,98913.39
2018-04-19T18:51:57.965Z,98916.81
2018-04-19T18:54:25.574Z,98915.83
2018-04-19T18:56:53.182Z,98924.10
2018-04-19T18:59:20.760Z,98916.93
2018-04-19T19:01:48.332Z,98919.15
2018-04-19T19:04:16.102Z,98920.83
2018-04-19T19:06:44.450Z,98913.94
2018-04-19T19:09:12.008Z,98916.23
2018-04-19T19:11:39.774Z,98930.89
2018-04-19T19:14:07.360Z,98924.41
2018-04-19T19:16:35.205Z,98927.50
2018-04-19T19:19:15.058Z,98929.59
2018-04-19T19:21:42.564Z,98933.63
2018-04-19T19:24:11.281Z,98937.91
2018-04-19T19:26:38.807Z,98940.53
2018-04-19T19:29:06.356Z,98944.95
2018-04-19T19:31:33.908Z,98951.82
2018-04-19T19:34:01.497Z,98952.42
2018-04-19T19:36:29.125Z,98949.27
2018-04-19T19:38:56.815Z,98952.75
2018-04-19T19:41:24.546Z,98953.40
2018-04-19T19:43:52.080Z,98953.12
2018-04-19T19:46:19.995Z,98957.58
2018-04-19T19:48:47.628Z,98957.77
2018-04-19T19:51:15.180Z,98950.64
2018-04-19T19:53:42.721Z,98956.00
2018-04-19T19:56:10.306Z,98954.23
2018-04-19T19:58:37.861Z,98956.14
2018-04-19T20:01:05.804Z,98952.56
2018-04-19T20:03:33.437Z,98954.02
2018-04-19T20:06:01.021Z,98957.14
2018-04-19T20:08:28.592Z,98950.69
2018-04-19T20:10:56.912Z,98954.44
2018-04-19T20:13:24.441Z,98948.72
2018-04-19T20:15:52.137Z,98948.86
2018-04-19T20:18:19.806Z,98947.80
2018-04-19T20:20:47.332Z,98951.09
2018-04-19T20:23:15.041Z,98945.42
2018-04-19T20:25:42.634Z,98947.48
2018-04-19T20:28:10.162Z,98950.78
2018-04-19T20:30:37.874Z,98957.46
2018-04-19T20:33:05.477Z,98956.84
2018-04-19T20:35:33.263Z,98955.70
2018-04-19T20:38:01.068Z,98956.66
2018-04-19T20:40:28.842Z,98952.38
2018-04-19T20:42:56.623Z,98957.45
2018-04-19T20:45:24.162Z,98950.72
2018-04-19T20:47:51.812Z,98952.38
2018-04-19T20:50:19.630Z,98951.34
2018-04-19T20:52:47.545Z,98951.91
2018-04-19T20:55:15.262Z,98948.22
2018-04-19T20:57:42.908Z,98945.88
2018-04-19T21:00:10.661Z,98950.40
2018-04-19T21:02:38.661Z,98945.05
2018-04-19T21:05:06.430Z,98945.56
2018-04-19T21:07:34.236Z,98947.69
2018-04-19T21:10:01.997Z,98941.15
2018-04-19T21:12:29.676Z,98941.03
2018-04-19T21:14:57.261Z,98939.68
2018-04-19T21:17:24.902Z,98933.93
2018-04-19T21:19:52.502Z,98931.88
2018-04-19T21:22:20.295Z,98935.44
2018-04-19T21:24:48.156Z,98933.02
2018-04-19T21:27:15.682Z,98934.66
2018-04-19T21:29:43.341Z,98936.73
2018-04-19T21:32:10.945Z,98933.34
2018-04-19T21:34:38.607Z,98930.14
2018-04-19T21:37:06.130Z,98928.41
2018-04-19T21:39:33.837Z,98939.37
2018-04-19T21:42:01.614Z,98934.83
2018-04-19T21:44:29.517Z,98934.09
2018-04-19T21:46:57.036Z,98931.97
2018-04-19T21:49:25.012Z,98933.06
2018-04-19T21:52:00.552Z,98931.22
2018-04-19T21:54:28.359Z,98931.23
2018-04-19T21:56:55.887Z,98939.99
2018-04-19T21:59:24.159Z,98935.00
2018-04-19T22:01:51.682Z,98922.31
2018-04-19T22:04:19.415Z,98925.17
2018-04-19T22:06:47.236Z,98921.35
2018-04-19T22:09:14.792Z,98923.95
2018-04-19T22:11:42.821Z,98916.77
2018-04-19T22:14:10.440Z,98918.70
2018-04-19T22:16:38.283Z,98913.13
2018-04-19T22:19:05.919Z,98915.30
2018-04-19T22:21:33.617Z,98914.58
2018-04-19T22:24:01.440Z,98914.14
2018-04-19T22:26:28.972Z,98912.42
2018-04-19T22:28:56.628Z,98909.03
2018-04-19T22:31:24.153Z,98910.30
2018-04-19T22:33:51.967Z,98905.89
2018-04-19T22:36:19.523Z,98906.84
2018-04-19T22:38:47.143Z,98913.80
2018-04-19T22:41:14.801Z,98903.91
2018-04-19T22:43:42.622Z,98905.52
2018-04-19T22:46:10.226Z,98904.42
2018-04-19T22:48:37.967Z,98905.23
2018-04-19T22:51:05.701Z,98906.40
2018-04-19T22:53:33.249Z,98907.07
2018-04-19T22:56:00.947Z,98906.17
2018-04-19T22:58:28.746Z,98906.25
2018-04-19T23:00:57.102Z,98906.45
2018-04-19T23:03:24.816Z,98908.01
2018-04-19T23:05:52.553Z,98906.06
2018-04-19T23:08:20.128Z,98907.92
2018-04-19T23:10:47.762Z,98898.72
2018-04-19T23:13:15.281Z,98899.03
2018-04-19T23:15:42.862Z,98902.32
2018-04-19T23:18:10.546Z,98903.55
2018-04-19T23:20:38.464Z,98899.98
2018-04-19T23:23:06.112Z,98901.19
2018-04-19T23:25:33.855Z,98897.13
2018-04-19T23:28:01.500Z,98893.11
2018-04-19T23:30:29.069Z,98897.30
2018-04-19T23:32:56.835Z,98896.74
2018-04-19T23:35:24.361Z,98895.64
2018-04-19T23:37:51.940Z,98897.16
2018-04-19T23:40:19.611Z,98897.96
2018-04-19T23:42:47.133Z,98898.59
2018-04-19T23:45:15.091Z,98896.87
2018-04-19T23:47:42.623Z,98891.43
2018-04-19T23:50:10.176Z,98896.88
2018-04-19T23:52:37.930Z,98892.41
2018-04-19T23:55:06.174Z,98894.72
2018-04-19T23:57:33.686Z,98889.06
